KAKO/AKO METAR and TAF weather

Enter ICAO airport designator
Station Type Date Time Source
KAKO METAR 2019/04/19 21:53 UTC NOAA

KAKO 192153Z AUTO 31009KT 10SM CLR 22/01 A3003 RMK AO2 SLP142 T02220011


Station Type Date Time Source
KAKO Decoded METAR 2019/04/19 21:53 UTC NOAA

COLORADO PLAINS REGIONAL, CO, United States (KAKO) 40-10N 103-13W 1421M
Apr 19, 2019 - 05:53 PM EDT / 2019.04.19 2153 UTC
Wind: from the NW (310 degrees) at 10 MPH (9 KT):0
Visibility: 10 mile(s):0
Sky conditions: clear
Temperature: 72.0 F (22.2 C)
Dew Point: 34.0 F (1.1 C)
Relative Humidity: 24%
Pressure (altimeter): 30.03 in. Hg (1016 hPa)
ob: KAKO 192153Z AUTO 31009KT 10SM CLR 22/01 A3003 RMK AO2 SLP142 T02220011
cycle: 22

Station Type Date Time Source
KAKO TAF UTC NOAA

Error!

Example: see airport list